sensor_id;sensor_type;location;lat;lon;timestamp;temperature;humidity
8988;DHT22;4529;51.360;12.474;2022-07-23T00:01:30;19.90;99.90
8988;DHT22;4529;51.360;12.474;2022-07-23T00:06:34;19.80;99.90
8988;DHT22;4529;51.360;12.474;2022-07-23T00:11:37;19.60;99.90
8988;DHT22;4529;51.360;12.474;2022-07-23T00:16:41;19.60;99.90
8988;DHT22;4529;51.360;12.474;2022-07-23T00:21:44;19.60;99.90
8988;DHT22;4529;51.360;12.474;2022-07-23T00:26:48;19.50;99.90
8988;DHT22;4529;51.360;12.474;2022-07-23T00:31:51;19.50;99.90
8988;DHT22;4529;51.360;12.474;2022-07-23T00:36:55;19.30;99.90
8988;DHT22;4529;51.360;12.474;2022-07-23T00:41:58;19.30;99.90
8988;DHT22;4529;51.360;12.474;2022-07-23T00:47:01;19.20;99.90
8988;DHT22;4529;51.360;12.474;2022-07-23T00:52:05;19.20;99.90
8988;DHT22;4529;51.360;12.474;2022-07-23T00:57:08;19.20;99.90
8988;DHT22;4529;51.360;12.474;2022-07-23T01:02:12;19.30;99.90
8988;DHT22;4529;51.360;12.474;2022-07-23T01:07:16;19.40;99.90
8988;DHT22;4529;51.360;12.474;2022-07-23T01:12:19;19.40;99.90
8988;DHT22;4529;51.360;12.474;2022-07-23T01:17:23;19.40;99.90
8988;DHT22;4529;51.360;12.474;2022-07-23T01:22:29;19.30;99.90
8988;DHT22;4529;51.360;12.474;2022-07-23T01:27:34;19.30;99.90
8988;DHT22;4529;51.360;12.474;2022-07-23T01:32:38;19.20;99.90
8988;DHT22;4529;51.360;12.474;2022-07-23T01:37:42;19.30;99.90
8988;DHT22;4529;51.360;12.474;2022-07-23T01:42:46;19.30;99.90
8988;DHT22;4529;51.360;12.474;2022-07-23T01:47:50;19.40;99.90
8988;DHT22;4529;51.360;12.474;2022-07-23T01:52:54;19.40;99.90
8988;DHT22;4529;51.360;12.474;2022-07-23T01:57:58;19.50;99.90
8988;DHT22;4529;51.360;12.474;2022-07-23T02:03:02;19.60;99.90
8988;DHT22;4529;51.360;12.474;2022-07-23T02:08:07;19.60;99.90
8988;DHT22;4529;51.360;12.474;2022-07-23T02:13:11;19.60;99.90
8988;DHT22;4529;51.360;12.474;2022-07-23T02:18:14;19.60;99.90
8988;DHT22;4529;51.360;12.474;2022-07-23T02:23:18;19.60;99.90
8988;DHT22;4529;51.360;12.474;2022-07-23T02:28:21;19.70;99.90
8988;DHT22;4529;51.360;12.474;2022-07-23T02:33:25;19.70;99.90
8988;DHT22;4529;51.360;12.474;2022-07-23T02:38:28;19.60;99.90
8988;DHT22;4529;51.360;12.474;2022-07-23T02:43:32;19.70;99.90
8988;DHT22;4529;51.360;12.474;2022-07-23T02:48:36;19.70;99.90
8988;DHT22;4529;51.360;12.474;2022-07-23T02:53:39;19.70;99.90
8988;DHT22;4529;51.360;12.474;2022-07-23T02:58:43;19.70;99.90
8988;DHT22;4529;51.360;12.474;2022-07-23T03:03:46;19.60;99.90
8988;DHT22;4529;51.360;12.474;2022-07-23T03:08:50;19.60;99.90
8988;DHT22;4529;51.360;12.474;2022-07-23T03:13:53;19.60;99.90
8988;DHT22;4529;51.360;12.474;2022-07-23T03:18:56;19.60;99.90
8988;DHT22;4529;51.360;12.474;2022-07-23T03:24:00;19.60;99.90
8988;DHT22;4529;51.360;12.474;2022-07-23T03:29:04;19.60;99.90
8988;DHT22;4529;51.360;12.474;2022-07-23T03:34:07;19.50;99.90
8988;DHT22;4529;51.360;12.474;2022-07-23T03:39:11;19.40;99.90
8988;DHT22;4529;51.360;12.474;2022-07-23T03:44:15;19.40;99.90
8988;DHT22;4529;51.360;12.474;2022-07-23T03:49:19;19.30;99.90
8988;DHT22;4529;51.360;12.474;2022-07-23T03:54:24;19.30;99.90
8988;DHT22;4529;51.360;12.474;2022-07-23T03:59:28;19.30;99.90
8988;DHT22;4529;51.360;12.474;2022-07-23T04:04:31;19.30;99.90
8988;DHT22;4529;51.360;12.474;2022-07-23T04:09:35;19.30;99.90
8988;DHT22;4529;51.360;12.474;2022-07-23T04:14:38;19.40;99.90
8988;DHT22;4529;51.360;12.474;2022-07-23T04:19:42;19.40;99.90
8988;DHT22;4529;51.360;12.474;2022-07-23T04:24:45;19.40;99.90
8988;DHT22;4529;51.360;12.474;2022-07-23T04:29:49;19.40;99.90
8988;DHT22;4529;51.360;12.474;2022-07-23T04:34:52;19.40;99.90
8988;DHT22;4529;51.360;12.474;2022-07-23T04:39:55;19.50;99.90
8988;DHT22;4529;51.360;12.474;2022-07-23T04:44:59;19.50;99.90
8988;DHT22;4529;51.360;12.474;2022-07-23T04:50:03;19.50;99.90
8988;DHT22;4529;51.360;12.474;2022-07-23T04:55:06;19.50;99.90
8988;DHT22;4529;51.360;12.474;2022-07-23T05:00:10;19.40;99.90
8988;DHT22;4529;51.360;12.474;2022-07-23T05:05:14;19.00;99.90
8988;DHT22;4529;51.360;12.474;2022-07-23T05:10:18;18.90;99.90
8988;DHT22;4529;51.360;12.474;2022-07-23T05:15:22;18.90;99.90
8988;DHT22;4529;51.360;12.474;2022-07-23T05:20:26;18.80;99.90
8988;DHT22;4529;51.360;12.474;2022-07-23T05:25:30;18.80;99.90
8988;DHT22;4529;51.360;12.474;2022-07-23T05:30:34;18.70;99.90
8988;DHT22;4529;51.360;12.474;2022-07-23T05:35:38;18.60;99.90
8988;DHT22;4529;51.360;12.474;2022-07-23T05:40:42;18.50;99.90
8988;DHT22;4529;51.360;12.474;2022-07-23T05:45:46;18.50;99.90
8988;DHT22;4529;51.360;12.474;2022-07-23T05:50:49;18.50;99.90
8988;DHT22;4529;51.360;12.474;2022-07-23T05:55:53;18.50;99.90
8988;DHT22;4529;51.360;12.474;2022-07-23T06:00:56;18.10;99.90
8988;DHT22;4529;51.360;12.474;2022-07-23T06:06:00;17.70;99.90
8988;DHT22;4529;51.360;12.474;2022-07-23T06:11:03;17.60;99.90
8988;DHT22;4529;51.360;12.474;2022-07-23T06:16:07;17.50;99.90
8988;DHT22;4529;51.360;12.474;2022-07-23T06:21:10;17.50;99.90
8988;DHT22;4529;51.360;12.474;2022-07-23T06:26:14;17.60;99.90
8988;DHT22;4529;51.360;12.474;2022-07-23T06:31:17;17.70;99.90
8988;DHT22;4529;51.360;12.474;2022-07-23T06:36:21;17.80;99.90
8988;DHT22;4529;51.360;12.474;2022-07-23T06:41:24;18.10;99.90
8988;DHT22;4529;51.360;12.474;2022-07-23T06:46:28;18.10;99.90
8988;DHT22;4529;51.360;12.474;2022-07-23T06:51:31;18.10;99.90
8988;DHT22;4529;51.360;12.474;2022-07-23T06:56:35;18.20;99.90
8988;DHT22;4529;51.360;12.474;2022-07-23T07:01:38;18.10;99.90
8988;DHT22;4529;51.360;12.474;2022-07-23T07:06:42;18.10;99.90
8988;DHT22;4529;51.360;12.474;2022-07-23T07:11:45;18.00;99.90
8988;DHT22;4529;51.360;12.474;2022-07-23T07:16:48;18.10;99.90
8988;DHT22;4529;51.360;12.474;2022-07-23T07:21:52;18.30;99.90
8988;DHT22;4529;51.360;12.474;2022-07-23T07:26:55;18.60;99.90
8988;DHT22;4529;51.360;12.474;2022-07-23T07:31:59;18.90;99.90
8988;DHT22;4529;51.360;12.474;2022-07-23T07:37:02;18.80;99.90
8988;DHT22;4529;51.360;12.474;2022-07-23T07:42:06;18.80;99.90
8988;DHT22;4529;51.360;12.474;2022-07-23T07:47:09;18.80;99.90
8988;DHT22;4529;51.360;12.474;2022-07-23T07:52:13;19.00;99.90
8988;DHT22;4529;51.360;12.474;2022-07-23T07:57:16;19.10;99.90
8988;DHT22;4529;51.360;12.474;2022-07-23T08:02:20;19.50;99.90
8988;DHT22;4529;51.360;12.474;2022-07-23T08:07:23;19.90;99.90
8988;DHT22;4529;51.360;12.474;2022-07-23T08:12:27;20.20;99.90
8988;DHT22;4529;51.360;12.474;2022-07-23T08:17:30;20.40;99.90
8988;DHT22;4529;51.360;12.474;2022-07-23T08:27:49;20.80;99.90
8988;DHT22;4529;51.360;12.474;2022-07-23T08:33:05;21.10;99.90
8988;DHT22;4529;51.360;12.474;2022-07-23T08:38:09;21.30;99.90
8988;DHT22;4529;51.360;12.474;2022-07-23T08:43:14;21.40;99.90
8988;DHT22;4529;51.360;12.474;2022-07-23T08:48:21;21.50;99.90
8988;DHT22;4529;51.360;12.474;2022-07-23T08:53:24;21.50;99.90
8988;DHT22;4529;51.360;12.474;2022-07-23T08:58:27;20.50;99.90
8988;DHT22;4529;51.360;12.474;2022-07-23T09:03:33;20.30;99.90
8988;DHT22;4529;51.360;12.474;2022-07-23T09:08:38;20.70;99.90
8988;DHT22;4529;51.360;12.474;2022-07-23T09:19:02;21.30;99.90
8988;DHT22;4529;51.360;12.474;2022-07-23T09:24:10;21.30;99.90
8988;DHT22;4529;51.360;12.474;2022-07-23T09:29:18;21.50;99.90
8988;DHT22;4529;51.360;12.474;2022-07-23T09:34:31;21.50;99.90
8988;DHT22;4529;51.360;12.474;2022-07-23T09:39:32;21.50;99.90
8988;DHT22;4529;51.360;12.474;2022-07-23T09:44:35;21.60;99.90
8988;DHT22;4529;51.360;12.474;2022-07-23T09:49:38;21.60;99.90
8988;DHT22;4529;51.360;12.474;2022-07-23T09:54:42;21.60;99.90
8988;DHT22;4529;51.360;12.474;2022-07-23T09:59:45;21.70;99.90
8988;DHT22;4529;51.360;12.474;2022-07-23T10:04:48;21.70;99.90
8988;DHT22;4529;51.360;12.474;2022-07-23T10:09:52;21.90;99.90
8988;DHT22;4529;51.360;12.474;2022-07-23T10:14:58;21.90;99.90
8988;DHT22;4529;51.360;12.474;2022-07-23T10:19:59;21.90;99.90
8988;DHT22;4529;51.360;12.474;2022-07-23T10:25:27;21.90;99.90
8988;DHT22;4529;51.360;12.474;2022-07-23T10:31:00;22.00;99.90
8988;DHT22;4529;51.360;12.474;2022-07-23T10:41:08;22.20;99.90
8988;DHT22;4529;51.360;12.474;2022-07-23T10:46:24;22.10;99.90
8988;DHT22;4529;51.360;12.474;2022-07-23T10:51:28;22.20;99.90
8988;DHT22;4529;51.360;12.474;2022-07-23T11:02:21;22.50;99.90
8988;DHT22;4529;51.360;12.474;2022-07-23T11:07:24;22.50;99.90
8988;DHT22;4529;51.360;12.474;2022-07-23T11:22:54;22.80;99.90
8988;DHT22;4529;51.360;12.474;2022-07-23T11:28:06;22.80;99.90
8988;DHT22;4529;51.360;12.474;2022-07-23T11:38:18;22.80;99.90
8988;DHT22;4529;51.360;12.474;2022-07-23T11:43:21;22.80;99.90
8988;DHT22;4529;51.360;12.474;2022-07-23T11:48:25;22.80;99.90
8988;DHT22;4529;51.360;12.474;2022-07-23T11:53:32;22.90;99.90
8988;DHT22;4529;51.360;12.474;2022-07-23T11:58:34;22.90;99.90
8988;DHT22;4529;51.360;12.474;2022-07-23T12:03:47;23.00;99.90
8988;DHT22;4529;51.360;12.474;2022-07-23T12:08:41;23.10;99.90
8988;DHT22;4529;51.360;12.474;2022-07-23T12:13:54;23.20;99.90
8988;DHT22;4529;51.360;12.474;2022-07-23T12:18:48;23.40;99.90
8988;DHT22;4529;51.360;12.474;2022-07-23T12:23:52;23.60;99.90
8988;DHT22;4529;51.360;12.474;2022-07-23T12:28:56;23.70;99.90
8988;DHT22;4529;51.360;12.474;2022-07-23T12:34:00;23.70;99.90
8988;DHT22;4529;51.360;12.474;2022-07-23T12:39:03;23.90;99.90
8988;DHT22;4529;51.360;12.474;2022-07-23T12:44:16;24.10;99.90
8988;DHT22;4529;51.360;12.474;2022-07-23T12:49:28;24.20;99.90
8988;DHT22;4529;51.360;12.474;2022-07-23T12:54:32;24.40;99.90
8988;DHT22;4529;51.360;12.474;2022-07-23T12:59:37;24.60;99.90
8988;DHT22;4529;51.360;12.474;2022-07-23T13:04:42;24.70;99.90
8988;DHT22;4529;51.360;12.474;2022-07-23T13:09:45;24.70;99.90
8988;DHT22;4529;51.360;12.474;2022-07-23T13:14:49;24.70;99.90
8988;DHT22;4529;51.360;12.474;2022-07-23T13:19:52;24.80;99.90
8988;DHT22;4529;51.360;12.474;2022-07-23T13:24:56;24.80;99.90
8988;DHT22;4529;51.360;12.474;2022-07-23T13:29:59;24.80;99.90
8988;DHT22;4529;51.360;12.474;2022-07-23T13:35:03;24.90;99.90
8988;DHT22;4529;51.360;12.474;2022-07-23T13:40:07;25.00;99.90
8988;DHT22;4529;51.360;12.474;2022-07-23T13:45:10;25.10;99.90
8988;DHT22;4529;51.360;12.474;2022-07-23T13:50:14;25.20;99.90
8988;DHT22;4529;51.360;12.474;2022-07-23T13:55:18;25.30;99.90
8988;DHT22;4529;51.360;12.474;2022-07-23T14:00:22;25.30;99.90
8988;DHT22;4529;51.360;12.474;2022-07-23T14:05:25;25.40;99.90
8988;DHT22;4529;51.360;12.474;2022-07-23T14:10:29;25.50;99.90
8988;DHT22;4529;51.360;12.474;2022-07-23T14:15:33;25.40;99.90
8988;DHT22;4529;51.360;12.474;2022-07-23T14:20:37;25.40;99.90
8988;DHT22;4529;51.360;12.474;2022-07-23T14:25:41;25.40;99.90
8988;DHT22;4529;51.360;12.474;2022-07-23T14:30:45;25.50;99.90
8988;DHT22;4529;51.360;12.474;2022-07-23T14:35:49;25.50;99.90
8988;DHT22;4529;51.360;12.474;2022-07-23T14:40:52;25.60;99.90
8988;DHT22;4529;51.360;12.474;2022-07-23T14:45:56;25.70;99.90
8988;DHT22;4529;51.360;12.474;2022-07-23T14:50:59;25.70;99.90
8988;DHT22;4529;51.360;12.474;2022-07-23T14:56:03;25.60;99.90
8988;DHT22;4529;51.360;12.474;2022-07-23T15:01:07;25.80;99.90
8988;DHT22;4529;51.360;12.474;2022-07-23T15:06:11;25.80;99.90
8988;DHT22;4529;51.360;12.474;2022-07-23T15:11:15;25.70;99.90
8988;DHT22;4529;51.360;12.474;2022-07-23T15:16:19;25.70;99.90
8988;DHT22;4529;51.360;12.474;2022-07-23T15:21:23;25.80;99.90
8988;DHT22;4529;51.360;12.474;2022-07-23T15:26:27;25.70;99.90
8988;DHT22;4529;51.360;12.474;2022-07-23T15:31:30;25.80;99.90
8988;DHT22;4529;51.360;12.474;2022-07-23T15:36:34;25.90;99.90
8988;DHT22;4529;51.360;12.474;2022-07-23T15:41:37;25.80;99.90
8988;DHT22;4529;51.360;12.474;2022-07-23T15:46:41;25.90;99.90
8988;DHT22;4529;51.360;12.474;2022-07-23T15:51:44;25.80;99.90
8988;DHT22;4529;51.360;12.474;2022-07-23T15:56:48;25.80;99.90
8988;DHT22;4529;51.360;12.474;2022-07-23T16:01:51;25.80;99.90
8988;DHT22;4529;51.360;12.474;2022-07-23T16:06:55;25.70;99.90
8988;DHT22;4529;51.360;12.474;2022-07-23T16:11:58;25.70;99.90
8988;DHT22;4529;51.360;12.474;2022-07-23T16:17:02;25.70;99.90
8988;DHT22;4529;51.360;12.474;2022-07-23T16:22:05;25.70;99.90
8988;DHT22;4529;51.360;12.474;2022-07-23T16:27:09;25.70;99.90
8988;DHT22;4529;51.360;12.474;2022-07-23T16:32:12;25.70;99.90
8988;DHT22;4529;51.360;12.474;2022-07-23T16:37:16;25.70;99.90
8988;DHT22;4529;51.360;12.474;2022-07-23T16:42:19;25.70;99.90
8988;DHT22;4529;51.360;12.474;2022-07-23T16:47:24;25.70;99.90
8988;DHT22;4529;51.360;12.474;2022-07-23T16:52:28;25.70;99.90
8988;DHT22;4529;51.360;12.474;2022-07-23T16:57:32;25.70;99.90
8988;DHT22;4529;51.360;12.474;2022-07-23T17:02:37;25.60;99.90
8988;DHT22;4529;51.360;12.474;2022-07-23T17:07:40;25.60;99.90
8988;DHT22;4529;51.360;12.474;2022-07-23T17:12:44;25.60;99.90
8988;DHT22;4529;51.360;12.474;2022-07-23T17:17:47;25.50;99.90
8988;DHT22;4529;51.360;12.474;2022-07-23T17:22:50;25.50;99.90
8988;DHT22;4529;51.360;12.474;2022-07-23T17:27:54;25.40;99.90
8988;DHT22;4529;51.360;12.474;2022-07-23T17:32:58;25.40;99.90
8988;DHT22;4529;51.360;12.474;2022-07-23T17:38:04;25.40;99.90
8988;DHT22;4529;51.360;12.474;2022-07-23T17:43:08;25.40;99.90
8988;DHT22;4529;51.360;12.474;2022-07-23T17:48:11;25.50;99.90
8988;DHT22;4529;51.360;12.474;2022-07-23T17:53:15;25.40;99.90
8988;DHT22;4529;51.360;12.474;2022-07-23T17:58:18;25.30;99.90
8988;DHT22;4529;51.360;12.474;2022-07-23T18:03:21;25.30;99.90
8988;DHT22;4529;51.360;12.474;2022-07-23T18:08:25;25.20;99.90
8988;DHT22;4529;51.360;12.474;2022-07-23T18:13:28;25.20;99.90
8988;DHT22;4529;51.360;12.474;2022-07-23T18:18:32;25.20;99.90
8988;DHT22;4529;51.360;12.474;2022-07-23T18:23:35;25.10;99.90
8988;DHT22;4529;51.360;12.474;2022-07-23T18:28:39;25.10;99.90
8988;DHT22;4529;51.360;12.474;2022-07-23T18:33:42;25.00;99.90
8988;DHT22;4529;51.360;12.474;2022-07-23T18:38:46;25.00;99.90
8988;DHT22;4529;51.360;12.474;2022-07-23T18:43:53;24.70;99.90
8988;DHT22;4529;51.360;12.474;2022-07-23T18:48:57;24.70;99.90
8988;DHT22;4529;51.360;12.474;2022-07-23T18:54:01;24.60;99.90
8988;DHT22;4529;51.360;12.474;2022-07-23T18:59:05;24.40;99.90
8988;DHT22;4529;51.360;12.474;2022-07-23T19:04:09;24.30;99.90
8988;DHT22;4529;51.360;12.474;2022-07-23T19:09:13;24.20;99.90
8988;DHT22;4529;51.360;12.474;2022-07-23T19:14:18;24.10;99.90
8988;DHT22;4529;51.360;12.474;2022-07-23T19:19:22;23.90;99.90
8988;DHT22;4529;51.360;12.474;2022-07-23T19:24:25;23.90;99.90
8988;DHT22;4529;51.360;12.474;2022-07-23T19:29:29;23.80;99.90
8988;DHT22;4529;51.360;12.474;2022-07-23T19:34:33;23.50;99.90
8988;DHT22;4529;51.360;12.474;2022-07-23T19:39:37;23.50;99.90
8988;DHT22;4529;51.360;12.474;2022-07-23T19:44:40;23.30;99.90
8988;DHT22;4529;51.360;12.474;2022-07-23T19:49:43;23.20;99.90
8988;DHT22;4529;51.360;12.474;2022-07-23T19:54:47;23.00;99.90
8988;DHT22;4529;51.360;12.474;2022-07-23T19:59:50;22.80;99.90
8988;DHT22;4529;51.360;12.474;2022-07-23T20:04:55;22.50;99.90
8988;DHT22;4529;51.360;12.474;2022-07-23T20:09:59;22.50;99.90
8988;DHT22;4529;51.360;12.474;2022-07-23T20:15:02;22.30;99.90
8988;DHT22;4529;51.360;12.474;2022-07-23T20:20:06;21.90;99.90
8988;DHT22;4529;51.360;12.474;2022-07-23T20:25:09;21.90;99.90
8988;DHT22;4529;51.360;12.474;2022-07-23T20:30:13;21.80;99.90
8988;DHT22;4529;51.360;12.474;2022-07-23T20:35:16;21.70;99.90
8988;DHT22;4529;51.360;12.474;2022-07-23T20:40:21;21.40;99.90
8988;DHT22;4529;51.360;12.474;2022-07-23T20:45:24;21.40;99.90
8988;DHT22;4529;51.360;12.474;2022-07-23T20:50:27;21.30;99.90
8988;DHT22;4529;51.360;12.474;2022-07-23T20:55:31;21.10;99.90
8988;DHT22;4529;51.360;12.474;2022-07-23T21:00:36;20.90;99.90
8988;DHT22;4529;51.360;12.474;2022-07-23T21:05:40;20.90;99.90
8988;DHT22;4529;51.360;12.474;2022-07-23T21:10:43;20.80;99.90
8988;DHT22;4529;51.360;12.474;2022-07-23T21:15:46;20.70;99.90
8988;DHT22;4529;51.360;12.474;2022-07-23T21:20:50;20.60;99.90
8988;DHT22;4529;51.360;12.474;2022-07-23T21:25:53;20.50;99.90
8988;DHT22;4529;51.360;12.474;2022-07-23T21:30:57;20.40;99.90
8988;DHT22;4529;51.360;12.474;2022-07-23T21:36:00;20.30;99.90
8988;DHT22;4529;51.360;12.474;2022-07-23T21:41:04;20.10;99.90
8988;DHT22;4529;51.360;12.474;2022-07-23T21:46:07;20.00;99.90
8988;DHT22;4529;51.360;12.474;2022-07-23T21:51:12;19.80;99.90
8988;DHT22;4529;51.360;12.474;2022-07-23T21:56:15;19.80;99.90
8988;DHT22;4529;51.360;12.474;2022-07-23T22:01:18;19.80;99.90
8988;DHT22;4529;51.360;12.474;2022-07-23T22:06:22;19.80;99.90
8988;DHT22;4529;51.360;12.474;2022-07-23T22:11:25;19.80;99.90
8988;DHT22;4529;51.360;12.474;2022-07-23T22:16:29;19.80;99.90
8988;DHT22;4529;51.360;12.474;2022-07-23T22:21:32;19.70;99.90
8988;DHT22;4529;51.360;12.474;2022-07-23T22:26:36;19.50;99.90
8988;DHT22;4529;51.360;12.474;2022-07-23T22:31:39;19.20;99.90
8988;DHT22;4529;51.360;12.474;2022-07-23T22:36:42;19.00;99.90
8988;DHT22;4529;51.360;12.474;2022-07-23T22:41:46;18.80;99.90
8988;DHT22;4529;51.360;12.474;2022-07-23T22:46:49;18.60;99.90
8988;DHT22;4529;51.360;12.474;2022-07-23T22:51:53;18.50;99.90
8988;DHT22;4529;51.360;12.474;2022-07-23T22:56:57;18.40;99.90
8988;DHT22;4529;51.360;12.474;2022-07-23T23:02:00;18.30;99.90
8988;DHT22;4529;51.360;12.474;2022-07-23T23:07:04;18.20;99.90
8988;DHT22;4529;51.360;12.474;2022-07-23T23:12:08;18.00;99.90
8988;DHT22;4529;51.360;12.474;2022-07-23T23:17:11;18.00;99.90
8988;DHT22;4529;51.360;12.474;2022-07-23T23:22:15;17.90;99.90
8988;DHT22;4529;51.360;12.474;2022-07-23T23:27:18;17.80;99.90
8988;DHT22;4529;51.360;12.474;2022-07-23T23:32:22;17.70;99.90
8988;DHT22;4529;51.360;12.474;2022-07-23T23:37:25;17.60;99.90
8988;DHT22;4529;51.360;12.474;2022-07-23T23:42:28;17.60;99.90
8988;DHT22;4529;51.360;12.474;2022-07-23T23:47:32;17.50;99.90
8988;DHT22;4529;51.360;12.474;2022-07-23T23:52:35;17.40;99.90
8988;DHT22;4529;51.360;12.474;2022-07-23T23:57:40;17.20;99.90
